Time;durP1;ratioP1;P1;durP2;ratioP2;P2;SDS_P1;SDS_P2;PMS_P1;PMS_P2;Temp;Humidity;BMP_temperature;BMP_pressure;BME280_temperature;BME280_humidity;BME280_pressure;Samples;Min_cycle;Max_cycle;Signal;HPM_P1;HPM_P2
2024/03/01 00:01:51;;;;;;;2.83;1.52;;;;;;;17.39;53.22;99973.19;10451841;28;20036;-62
2024/03/01 00:06:51;;;;;;;2.90;1.80;;;;;;;17.40;54.56;99971.31;10452191;28;20035;-62
2024/03/01 00:11:52;;;;;;;2.03;1.40;;;;;;;17.39;53.52;99967.84;10450218;28;20733;-62
2024/03/01 00:16:52;;;;;;;3.73;1.70;;;;;;;17.41;53.48;99967.56;10450313;28;20369;-61
2024/03/01 00:21:52;;;;;;;3.20;1.63;;;;;;;17.39;54.25;99967.84;10451298;28;20294;-61
2024/03/01 00:26:53;;;;;;;2.20;1.23;;;;;;;17.40;54.88;99974.78;10451584;28;20607;-61
2024/03/01 00:31:53;;;;;;;2.72;1.40;;;;;;;17.37;54.45;99974.59;10450142;28;20283;-61
2024/03/01 00:36:53;;;;;;;3.72;1.80;;;;;;;17.38;53.72;99963.56;10451121;28;20058;-62
2024/03/01 00:41:54;;;;;;;3.47;1.53;;;;;;;17.39;53.17;99957.13;10448809;28;20032;-62
2024/03/01 00:46:55;;;;;;;2.58;1.70;;;;;;;17.38;53.62;99949.38;10450703;28;20286;-62
2024/03/01 00:51:55;;;;;;;2.90;1.23;;;;;;;17.41;54.00;99946.13;10450275;28;20210;-62
2024/03/01 00:56:56;;;;;;;3.33;1.50;;;;;;;17.41;53.72;99930.84;10450722;28;20348;-62
2024/03/01 01:01:56;;;;;;;1.83;1.10;;;;;;;17.39;53.32;99935.69;10449776;28;20295;-62
2024/03/01 01:06:56;;;;;;;2.10;1.40;;;;;;;17.40;53.47;99939.94;10450257;28;20025;-61
2024/03/01 01:11:57;;;;;;;3.57;1.53;;;;;;;17.38;54.19;99942.16;10449506;28;20291;-62
2024/03/01 01:16:58;;;;;;;3.03;1.30;;;;;;;17.38;54.15;99931.41;10450217;28;20287;-62
2024/03/01 01:21:59;;;;;;;2.20;1.15;;;;;;;17.41;53.70;99932.72;10448037;28;20029;-62
2024/03/01 01:27:00;;;;;;;2.65;1.40;;;;;;;17.40;53.21;99923.88;10448631;28;20591;-61
2024/03/01 01:32:00;;;;;;;2.08;1.30;;;;;;;17.41;53.49;99914.75;10449077;28;20560;-61
2024/03/01 01:37:01;;;;;;;2.73;1.47;;;;;;;17.40;53.73;99902.41;10449369;28;20431;-61
2024/03/01 01:42:01;;;;;;;3.15;1.27;;;;;;;17.41;53.62;99913.97;10447898;28;20294;-62
2024/03/01 01:47:02;;;;;;;3.77;1.57;;;;;;;17.41;53.26;99904.03;10449555;28;20052;-61
2024/03/01 01:52:02;;;;;;;2.38;0.98;;;;;;;17.39;53.81;99895.47;10448861;28;20268;-62
2024/03/01 01:57:04;;;;;;;2.97;1.33;;;;;;;17.39;53.47;99890.13;10453137;28;20040;-62
2024/03/01 02:02:04;;;;;;;2.92;1.30;;;;;;;17.40;53.57;99880.19;10456980;28;20029;-61
2024/03/01 02:07:05;;;;;;;2.85;1.60;;;;;;;17.41;53.39;99874.56;10455777;28;20028;-62
2024/03/01 02:12:06;;;;;;;3.65;1.98;;;;;;;17.42;54.61;99867.31;10456080;28;20384;-61
2024/03/01 02:17:07;;;;;;;2.60;1.20;;;;;;;17.42;53.78;99872.66;10456806;28;20043;-62
2024/03/01 02:22:17;;;;;;;2.35;1.30;;;;;;;17.43;54.18;99863.53;10455984;28;20021;-61
2024/03/01 02:27:17;;;;;;;2.50;1.50;;;;;;;17.46;55.98;99852.19;10454602;28;20469;-61
2024/03/01 02:32:18;;;;;;;2.20;1.33;;;;;;;17.55;55.49;99844.97;10455586;28;20025;-61
2024/03/01 02:37:19;;;;;;;2.05;1.27;;;;;;;17.54;55.58;99835.34;10455730;28;20036;-61
2024/03/01 02:42:19;;;;;;;1.87;1.20;;;;;;;17.51;54.65;99822.56;10455049;28;20032;-61
2024/03/01 02:47:19;;;;;;;2.33;1.38;;;;;;;17.54;54.59;99817.38;10455163;28;20271;-62
2024/03/01 02:52:20;;;;;;;3.20;1.00;;;;;;;17.52;55.20;99814.22;10453262;28;20440;-61
2024/03/01 02:57:20;;;;;;;1.77;1.23;;;;;;;17.49;55.06;99812.16;10453953;28;20333;-61
2024/03/01 03:02:20;;;;;;;1.55;1.08;;;;;;;17.48;54.76;99813.25;10453439;28;20291;-61
2024/03/01 03:07:21;;;;;;;2.30;1.20;;;;;;;17.49;55.19;99811.34;10453050;28;20030;-61
2024/03/01 03:12:21;;;;;;;2.40;1.48;;;;;;;17.49;55.73;99814.03;10454456;28;20684;-61
2024/03/01 03:17:22;;;;;;;2.72;1.35;;;;;;;17.41;55.05;99807.56;10452562;28;20472;-61
2024/03/01 03:22:24;;;;;;;2.75;1.45;;;;;;;17.37;54.89;99803.91;10452462;28;20017;-61
2024/03/01 03:27:24;;;;;;;2.30;1.60;;;;;;;17.37;55.30;99811.16;10453672;28;20060;-61
2024/03/01 03:32:25;;;;;;;1.92;1.08;;;;;;;17.39;54.59;99807.06;10452325;28;20727;-61
2024/03/01 03:37:25;;;;;;;1.95;1.17;;;;;;;17.40;55.37;99813.22;10451698;28;20496;-61
2024/03/01 03:42:26;;;;;;;1.60;1.08;;;;;;;17.35;55.47;99805.31;10451806;28;20078;-61
2024/03/01 03:47:26;;;;;;;1.73;1.13;;;;;;;17.37;55.29;99811.16;10451287;28;20024;-61
2024/03/01 03:52:27;;;;;;;1.70;1.10;;;;;;;17.36;55.26;99805.00;10452738;28;20048;-61
2024/03/01 03:57:28;;;;;;;1.95;1.30;;;;;;;17.38;54.69;99813.50;10451322;28;20325;-61
2024/03/01 04:02:29;;;;;;;1.90;0.80;;;;;;;17.41;55.10;99822.84;10452507;28;20102;-62
2024/03/01 04:07:29;;;;;;;2.20;1.20;;;;;;;17.42;55.29;99835.16;10450705;28;20036;-61
2024/03/01 04:12:30;;;;;;;2.20;1.03;;;;;;;17.37;55.32;99838.72;10451715;28;20719;-61
2024/03/01 04:17:30;;;;;;;2.40;1.37;;;;;;;17.39;54.97;99844.56;10448828;28;20287;-61
2024/03/01 04:22:31;;;;;;;1.88;1.45;;;;;;;17.39;54.44;99855.28;10446444;28;20362;-61
2024/03/01 04:27:31;;;;;;;1.55;1.08;;;;;;;17.38;55.01;99877.81;10450245;28;20043;-61
2024/03/01 04:32:31;;;;;;;2.07;1.10;;;;;;;17.37;54.77;99891.53;10447244;28;20083;-61
2024/03/01 04:37:32;;;;;;;1.77;1.13;;;;;;;17.40;54.55;99897.06;10448391;28;20321;-62
2024/03/01 04:42:32;;;;;;;1.60;1.03;;;;;;;17.41;54.55;99901.34;10450251;28;20302;-61
2024/03/01 04:47:32;;;;;;;2.75;1.00;;;;;;;17.41;54.59;99901.34;10449392;28;20271;-61
2024/03/01 04:52:33;;;;;;;1.35;1.00;;;;;;;17.41;54.13;99908.59;10450381;28;20056;-62
2024/03/01 04:57:33;;;;;;;2.00;1.25;;;;;;;17.38;55.21;99919.91;10420694;28;20623;-62
2024/03/01 05:02:34;;;;;;;1.63;0.83;;;;;;;17.39;53.90;99926.84;10447660;28;20040;-62
2024/03/01 05:07:34;;;;;;;1.67;0.90;;;;;;;17.38;54.32;99933.31;10445525;28;20274;-61
2024/03/01 05:12:38;;;;;;;1.97;1.00;;;;;;;17.37;53.60;99950.50;10443787;28;20042;-61
2024/03/01 05:17:40;;;;;;;1.50;0.77;;;;;;;17.38;54.44;99954.75;10445157;28;20388;-62
2024/03/01 05:22:46;;;;;;;1.50;0.90;;;;;;;17.39;54.88;99970.53;10448233;28;20032;-61
2024/03/01 05:27:48;;;;;;;3.78;0.90;;;;;;;17.42;53.63;99969.13;10449297;28;20028;-62
2024/03/01 05:32:48;;;;;;;3.53;0.73;;;;;;;17.42;53.72;99977.97;10458031;28;20774;-62
2024/03/01 05:37:49;;;;;;;2.45;0.90;;;;;;;17.41;54.68;99997.03;10455145;28;20032;-61
2024/03/01 05:42:49;;;;;;;1.27;1.08;;;;;;;17.39;53.83;99997.31;10454108;28;20029;-62
2024/03/01 05:47:50;;;;;;;3.05;1.20;;;;;;;17.40;54.32;100012.28;10455582;28;20059;-62
2024/03/01 05:52:50;;;;;;;14.63;2.33;;;;;;;17.52;54.84;100017.94;10455452;28;20029;-61
2024/03/01 05:57:50;;;;;;;16.77;1.63;;;;;;;17.61;56.80;100020.66;10452766;28;20040;-62
2024/03/01 06:02:51;;;;;;;6.35;1.60;;;;;;;17.63;57.42;100023.81;10454103;28;20313;-60
2024/03/01 06:07:51;;;;;;;10.32;1.52;;;;;;;17.58;55.73;100031.19;10452155;28;20021;-59
2024/03/01 06:12:52;;;;;;;5.90;1.17;;;;;;;17.59;55.23;100038.94;10453411;28;20045;-58
2024/03/01 06:17:52;;;;;;;8.65;1.48;;;;;;;17.51;56.60;100042.34;10446343;28;20330;-58
2024/03/01 06:22:52;;;;;;;11.53;2.07;;;;;;;17.47;55.19;100044.03;10451628;28;20025;-61
2024/03/01 06:27:53;;;;;;;10.15;1.90;;;;;;;17.44;56.97;100050.03;10451328;28;20739;-61
2024/03/01 06:32:54;;;;;;;11.83;1.50;;;;;;;17.35;56.52;100051.84;10440528;28;20013;-59
2024/03/01 06:37:54;;;;;;;10.95;1.50;;;;;;;17.35;56.82;100049.94;10454199;28;20275;-59
2024/03/01 06:42:55;;;;;;;10.53;2.30;;;;;;;17.30;55.96;100055.44;10453618;28;20043;-59
2024/03/01 06:47:55;;;;;;;8.20;1.20;;;;;;;17.30;56.01;100058.13;10452834;28;20279;-59
2024/03/01 06:52:56;;;;;;;5.30;1.77;;;;;;;17.28;56.06;100059.47;10454242;28;20024;-59
2024/03/01 06:57:57;;;;;;;4.90;1.52;;;;;;;17.27;55.80;100074.78;10451839;28;20039;-59
2024/03/01 07:02:58;;;;;;;8.38;1.73;;;;;;;17.31;56.03;100086.50;10447355;28;20021;-60
2024/03/01 07:07:58;;;;;;;11.63;1.73;;;;;;;17.33;55.65;100088.88;10453191;28;20029;-60
2024/03/01 07:12:59;;;;;;;9.43;3.10;;;;;;;17.29;56.30;100096.72;10454622;28;20055;-59
2024/03/01 07:17:59;;;;;;;16.80;2.33;;;;;;;17.29;54.76;100104.75;10453599;28;20075;-59
2024/03/01 07:22:59;;;;;;;8.02;1.63;;;;;;;17.30;54.34;100110.91;10452395;28;20021;-59
2024/03/01 07:28:01;;;;;;;10.20;1.87;;;;;;;17.27;54.84;100103.44;10452328;28;20016;-59
2024/03/01 07:33:01;;;;;;;9.18;1.52;;;;;;;17.17;54.52;100112.53;10451290;28;20268;-58
2024/03/01 07:38:01;;;;;;;10.65;2.15;;;;;;;17.34;55.82;100104.63;10450881;28;20404;-58
2024/03/01 07:43:02;;;;;;;5.93;1.33;;;;;;;17.29;55.78;100110.13;10451535;28;20040;-59
2024/03/01 07:48:02;;;;;;;3.78;1.20;;;;;;;17.31;55.52;100104.44;10452228;28;20301;-59
2024/03/01 07:53:03;;;;;;;6.38;1.73;;;;;;;17.31;55.36;100101.78;10449311;28;20021;-60
2024/03/01 07:58:03;;;;;;;4.80;1.40;;;;;;;17.26;54.33;100105.34;10451055;28;20502;-59
2024/03/01 08:03:08;;;;;;;6.07;1.47;;;;;;;17.28;55.06;100108.50;10451143;28;20025;-60
2024/03/01 08:08:09;;;;;;;5.72;1.75;;;;;;;17.30;53.81;100108.22;10449502;28;20873;-59
2024/03/01 08:13:10;;;;;;;5.65;2.28;;;;;;;17.23;55.11;100119.34;10450936;28;20404;-58
2024/03/01 08:18:19;;;;;;;7.50;1.42;;;;;;;17.24;54.59;100120.94;10450428;28;20036;-59
2024/03/01 08:23:20;;;;;;;4.70;1.20;;;;;;;17.28;53.91;100129.16;10449327;28;20025;-59
2024/03/01 08:28:24;;;;;;;5.25;1.17;;;;;;;17.28;54.11;100129.94;10450149;28;20067;-59
2024/03/01 08:33:25;;;;;;;5.30;1.35;;;;;;;17.24;54.96;100119.03;10450458;28;20025;-60
2024/03/01 08:38:43;;;;;;;1.50;0.50;;;;;;;17.23;54.69;100128.19;10449484;28;20024;-59
2024/03/01 08:43:44;;;;;;;4.03;0.93;;;;;;;17.21;54.60;100126.91;10437950;28;21075;-60
2024/03/01 08:48:44;;;;;;;2.40;1.20;;;;;;;17.22;55.06;100128.47;10448457;28;20032;-60
2024/03/01 08:54:13;;;;;;;4.00;0.93;;;;;;;17.19;54.10;100143.28;10448347;28;20032;-59
2024/03/01 08:59:37;;;;;;;5.47;1.30;;;;;;;17.17;55.24;100155.38;10439984;28;20113;-59
2024/03/01 09:04:37;;;;;;;1.52;0.70;;;;;;;17.16;54.68;100145.72;10447179;28;20029;-59
2024/03/01 09:09:39;;;;;;;4.10;1.52;;;;;;;17.17;55.13;100147.34;10435596;28;20025;-59
2024/03/01 09:14:40;;;;;;;3.03;0.90;;;;;;;17.13;54.76;100141.78;10448974;28;20033;-59
2024/03/01 09:19:45;;;;;;;2.38;0.95;;;;;;;17.15;54.25;100166.38;10447043;28;20488;-59
2024/03/01 09:24:47;;;;;;;2.65;1.40;;;;;;;17.09;55.83;100151.50;10447779;28;20028;-59
2024/03/01 09:29:47;;;;;;;2.83;0.95;;;;;;;17.10;55.90;100163.81;10446908;28;20028;-59
2024/03/01 09:34:50;;;;;;;2.55;0.98;;;;;;;17.07;54.84;100151.03;10447495;28;20833;-59
2024/03/01 09:39:51;;;;;;;1.90;0.90;;;;;;;17.06;54.97;100140.63;10447936;28;20028;-59
2024/03/01 09:45:17;;;;;;;3.35;0.98;;;;;;;17.09;56.67;100150.72;10447619;28;20029;-59
2024/03/01 09:50:36;;;;;;;1.80;0.90;;;;;;;17.08;56.07;100144.56;10448368;28;20040;-59
2024/03/01 09:56:00;;;;;;;1.27;0.73;;;;;;;17.08;56.39;100133.84;10446996;28;20020;-59
2024/03/01 10:01:17;;;;;;;4.35;1.10;;;;;;;17.09;54.64;100126.63;10446599;28;20029;-59
2024/03/01 10:06:29;;;;;;;3.03;1.10;;;;;;;17.10;56.51;100122.84;10433983;28;20033;-59
2024/03/01 10:11:45;;;;;;;1.80;0.95;;;;;;;17.13;56.26;100114.19;10447458;28;20048;-59
2024/03/01 10:17:11;;;;;;;3.50;0.65;;;;;;;17.13;56.19;100106.94;10451033;28;20123;-58
2024/03/01 10:22:35;;;;;;;3.35;0.82;;;;;;;17.14;56.23;100105.06;10454954;28;20108;-59
2024/03/01 10:27:37;;;;;;;1.38;0.95;;;;;;;17.16;55.38;100106.34;10443250;28;20029;-58
2024/03/01 10:33:02;;;;;;;2.75;0.80;;;;;;;17.11;54.50;100111.03;10454729;28;20356;-59
2024/03/01 10:38:15;;;;;;;2.42;0.80;;;;;;;17.04;55.96;100102.59;10455015;28;20372;-59
2024/03/01 10:43:33;;;;;;;1.85;0.93;;;;;;;17.01;55.22;100105.88;10436732;28;20358;-59
2024/03/01 10:48:50;;;;;;;1.35;0.82;;;;;;;16.98;56.29;100082.38;10440284;28;20480;-59
2024/03/01 10:53:56;;;;;;;2.00;0.93;;;;;;;16.98;55.19;100080.50;10453940;28;20096;-60
2024/03/01 10:59:02;;;;;;;1.58;0.90;;;;;;;17.05;55.70;100072.84;10435707;28;20059;-60
2024/03/01 11:04:23;;;;;;;1.13;0.63;;;;;;;17.08;55.31;100064.22;10453535;28;20021;-59
2024/03/01 11:09:40;;;;;;;1.95;0.73;;;;;;;17.09;54.87;100046.25;10452547;28;20044;-59
2024/03/01 11:14:49;;;;;;;1.70;0.98;;;;;;;17.03;54.87;100039.41;10426536;28;20029;-59
2024/03/01 11:19:50;;;;;;;1.53;0.67;;;;;;;17.03;54.58;100042.88;10451613;28;20024;-59
2024/03/01 11:25:05;;;;;;;1.58;0.75;;;;;;;17.00;55.72;100019.38;10451855;28;20025;-59
2024/03/01 11:30:06;;;;;;;2.15;0.80;;;;;;;17.06;55.75;100014.72;10451221;28;20033;-58
2024/03/01 11:35:39;;;;;;;1.95;0.65;;;;;;;17.04;54.65;100011.53;10452687;28;20025;-59
2024/03/01 11:41:07;;;;;;;1.52;0.80;;;;;;;17.06;54.79;100012.84;10431826;28;20393;-60
2024/03/01 11:46:10;;;;;;;1.33;0.68;;;;;;;17.13;55.79;99996.34;10450632;28;20082;-60
2024/03/01 11:51:29;;;;;;;3.63;0.93;;;;;;;17.13;55.27;99982.94;10451736;28;20035;-59
2024/03/01 11:56:43;;;;;;;1.30;0.63;;;;;;;17.17;53.86;99973.22;10452413;28;20029;-59
2024/03/01 12:02:03;;;;;;;1.80;0.65;;;;;;;17.21;55.17;99963.47;10433225;28;20028;-60
2024/03/01 12:07:20;;;;;;;0.80;0.40;;;;;;;17.21;54.18;99950.06;10433050;28;20036;-59
2024/03/01 12:12:29;;;;;;;3.38;0.80;;;;;;;17.26;54.96;99941.91;10427233;28;20053;-59
2024/03/01 12:17:42;;;;;;;2.28;0.70;;;;;;;17.27;54.09;99945.38;10449789;28;20074;-59
2024/03/01 12:22:49;;;;;;;2.92;0.82;;;;;;;17.29;54.44;99937.84;10450021;28;20111;-59
2024/03/01 12:28:13;;;;;;;1.40;0.60;;;;;;;17.30;54.17;99918.00;10450296;28;20388;-58
2024/03/01 12:33:38;;;;;;;2.42;0.60;;;;;;;17.27;54.61;99918.59;10447673;28;20423;-59
2024/03/01 12:38:45;;;;;;;2.20;0.82;;;;;;;17.19;53.87;99898.69;10450817;28;20029;-59
2024/03/01 12:43:57;;;;;;;2.53;1.05;;;;;;;17.13;54.33;99894.53;10449285;28;20040;-60
2024/03/01 12:49:19;;;;;;;1.38;0.60;;;;;;;17.05;55.41;99912.16;10449702;28;20457;-59
2024/03/01 12:54:23;;;;;;;1.05;0.60;;;;;;;17.01;54.45;99916.53;10448927;28;20618;-59
2024/03/01 12:59:51;;;;;;;1.40;0.70;;;;;;;16.94;54.49;99902.78;10432893;28;20686;-58
2024/03/01 13:05:36;;;;;;;2.70;0.60;;;;;;;16.93;54.48;99903.88;10437014;28;20120;-58
2024/03/01 13:10:38;;;;;;;1.40;0.60;;;;;;;16.90;55.63;99904.47;10449519;28;20092;-59
2024/03/01 13:15:46;;;;;;;1.60;0.60;;;;;;;16.87;55.72;99913.91;10449713;28;20235;-58
2024/03/01 13:21:15;;;;;;;1.33;0.63;;;;;;;16.84;55.15;99925.22;10448604;28;20050;-59
2024/03/01 13:26:22;;;;;;;5.15;0.75;;;;;;;16.93;55.16;99915.38;10438609;28;20044;-58
2024/03/01 13:31:27;;;;;;;2.17;0.47;;;;;;;16.85;55.84;99923.34;10448866;28;20076;-60
2024/03/01 13:36:30;;;;;;;1.77;0.57;;;;;;;16.81;55.14;99922.34;10448561;28;20028;-59
2024/03/01 13:41:32;;;;;;;3.67;0.70;;;;;;;16.78;54.53;99917.59;10447895;28;20017;-60
2024/03/01 13:46:39;;;;;;;2.75;0.73;;;;;;;16.77;55.60;99924.84;10449461;28;20033;-62
2024/03/01 13:51:39;;;;;;;2.65;0.75;;;;;;;16.75;54.30;99926.25;10452434;28;20678;-60
2024/03/01 13:56:40;;;;;;;4.57;0.80;;;;;;;16.79;54.55;99911.16;10456236;28;20028;-60
2024/03/01 14:01:40;;;;;;;2.28;0.70;;;;;;;16.83;53.80;99909.47;10455248;28;20654;-59
2024/03/01 14:06:46;;;;;;;2.22;0.85;;;;;;;16.87;53.84;99905.88;10455102;28;20021;-59
2024/03/01 14:11:47;;;;;;;1.98;0.90;;;;;;;16.87;54.75;99897.84;10455810;28;20052;-61
2024/03/01 14:16:47;;;;;;;5.10;1.38;;;;;;;16.89;52.76;99886.81;10455807;28;20027;-60
2024/03/01 14:21:47;;;;;;;1.43;0.80;;;;;;;16.95;53.00;99891.75;10455945;28;20021;-60
2024/03/01 14:26:48;;;;;;;2.08;0.85;;;;;;;16.97;53.43;99878.06;10456198;28;20290;-60
2024/03/01 14:32:06;;;;;;;2.90;0.80;;;;;;;16.96;53.21;99863.09;10452827;28;20020;-59
2024/03/01 14:37:08;;;;;;;2.88;1.10;;;;;;;16.96;52.51;99873.81;10454350;28;20803;-60
2024/03/01 14:42:18;;;;;;;2.08;0.75;;;;;;;17.01;52.00;99872.88;10437098;28;20025;-60
2024/03/01 14:47:23;;;;;;;2.60;0.85;;;;;;;17.02;53.56;99888.63;10430476;28;20024;-60
2024/03/01 14:52:24;;;;;;;1.90;0.60;;;;;;;17.06;52.00;99894.19;10435788;28;20029;-60
2024/03/01 14:57:26;;;;;;;6.68;1.27;;;;;;;17.06;51.69;99892.31;10451542;28;20522;-60
2024/03/01 15:02:26;;;;;;;1.90;0.60;;;;;;;17.04;52.33;99889.13;10453487;28;20025;-60
2024/03/01 15:07:27;;;;;;;2.05;0.50;;;;;;;17.00;52.01;99888.16;10454641;28;20407;-60
2024/03/01 15:12:27;;;;;;;3.17;0.80;;;;;;;17.02;52.99;99875.25;10453624;28;20052;-60
2024/03/01 15:17:27;;;;;;;2.00;0.57;;;;;;;17.03;52.95;99871.47;10454129;28;20399;-60
2024/03/01 15:22:28;;;;;;;4.07;0.63;;;;;;;17.02;52.56;99874.47;10452203;28;20283;-60
2024/03/01 15:27:28;;;;;;;5.40;1.23;;;;;;;17.03;52.08;99868.78;10453963;28;20278;-59
2024/03/01 15:32:28;;;;;;;14.93;2.27;;;;;;;17.13;53.33;99876.59;10453524;28;20271;-60
2024/03/01 15:37:29;;;;;;;22.23;3.53;;;;;;;17.16;52.99;99872.50;10452251;28;20635;-58
2024/03/01 15:42:29;;;;;;;27.70;4.17;;;;;;;17.14;52.68;99872.81;10417192;28;20291;-59
2024/03/01 15:47:29;;;;;;;18.40;3.33;;;;;;;17.22;53.19;99852.53;10450568;28;20286;-61
2024/03/01 15:52:30;;;;;;;23.25;4.07;;;;;;;17.24;53.37;99864.53;10450053;28;20350;-62
2024/03/01 15:57:30;;;;;;;27.67;4.20;;;;;;;17.26;54.48;99866.88;10451450;28;20036;-61
2024/03/01 16:02:31;;;;;;;24.00;3.30;;;;;;;17.16;53.45;99859.91;10450118;28;20298;-61
2024/03/01 16:07:42;;;;;;;28.92;4.85;;;;;;;17.13;54.72;99855.16;10426889;28;20638;-58
2024/03/01 16:12:56;;;;;;;27.75;4.50;;;;;;;17.08;54.05;99851.81;10440867;28;20050;-60
2024/03/01 16:17:58;;;;;;;26.63;4.38;;;;;;;17.06;52.91;99841.44;10441319;28;20025;-58
2024/03/01 16:22:58;;;;;;;17.08;2.88;;;;;;;17.08;53.43;99836.53;10435551;28;20025;-57
2024/03/01 16:27:59;;;;;;;19.30;3.47;;;;;;;17.09;52.11;99843.47;10448776;28;20051;-59
2024/03/01 16:32:59;;;;;;;15.97;3.40;;;;;;;17.14;52.04;99835.31;10415565;28;20294;-59
2024/03/01 16:37:59;;;;;;;14.13;3.05;;;;;;;17.12;51.56;99839.41;10441250;28;20276;-59
2024/03/01 16:43:00;;;;;;;17.23;2.92;;;;;;;17.29;52.58;99852.09;10448500;28;20047;-58
2024/03/01 16:48:24;;;;;;;18.05;3.55;;;;;;;17.42;53.10;99848.53;10449662;28;20021;-58
2024/03/01 16:53:24;;;;;;;16.10;4.10;;;;;;;17.38;53.38;99853.72;10442914;28;20116;-61
2024/03/01 16:58:25;;;;;;;25.85;5.28;;;;;;;17.37;52.90;99857.50;10449720;28;20458;-59
2024/03/01 17:03:34;;;;;;;19.70;4.30;;;;;;;17.31;52.03;99864.09;10447980;28;20104;-59
2024/03/01 17:08:36;;;;;;;13.57;3.40;;;;;;;17.29;53.21;99860.94;10449869;28;20033;-59
2024/03/01 17:13:37;;;;;;;13.00;2.58;;;;;;;17.24;52.86;99863.72;10449614;28;20048;-59
2024/03/01 17:18:37;;;;;;;17.90;3.65;;;;;;;17.23;52.86;99868.31;10448321;28;20033;-60
2024/03/01 17:23:38;;;;;;;21.63;3.58;;;;;;;17.26;53.95;99864.22;10446965;28;20481;-59
2024/03/01 17:28:38;;;;;;;17.63;2.73;;;;;;;17.29;52.64;99863.63;10462159;28;20033;-61
2024/03/01 17:33:40;;;;;;;12.43;2.95;;;;;;;17.23;52.57;99870.19;10462774;28;20297;-61
2024/03/01 17:38:40;;;;;;;20.23;5.72;;;;;;;17.17;53.55;99864.19;10462193;28;20024;-61
2024/03/01 17:43:41;;;;;;;10.77;3.10;;;;;;;17.18;53.28;99870.31;10460536;28;20025;-62
2024/03/01 17:48:41;;;;;;;9.20;2.30;;;;;;;17.14;53.00;99872.03;10461442;28;20291;-59
2024/03/01 17:53:42;;;;;;;11.82;3.13;;;;;;;17.12;53.50;99874.22;10460327;28;20025;-60
2024/03/01 17:58:42;;;;;;;11.23;2.17;;;;;;;17.13;52.56;99879.25;10459453;28;20024;-60
2024/03/01 18:03:42;;;;;;;6.72;1.67;;;;;;;17.20;52.49;99876.16;10459823;28;20294;-59
2024/03/01 18:08:43;;;;;;;15.00;1.77;;;;;;;17.23;53.15;99881.69;10459498;28;20033;-59
2024/03/01 18:13:43;;;;;;;10.53;2.20;;;;;;;17.23;53.10;99883.59;10459916;28;20288;-59
2024/03/01 18:18:43;;;;;;;7.15;1.70;;;;;;;17.22;52.93;99876.66;10459356;28;20279;-60
2024/03/01 18:23:44;;;;;;;9.77;2.87;;;;;;;17.17;53.11;99874.09;10459824;28;20032;-60
2024/03/01 18:28:44;;;;;;;10.90;2.30;;;;;;;17.16;53.61;99881.31;10459024;28;20282;-60
2024/03/01 18:33:44;;;;;;;11.27;3.37;;;;;;;17.18;53.76;99889.88;10459421;28;20274;-60
2024/03/01 18:38:45;;;;;;;8.90;1.67;;;;;;;17.16;53.70;99880.53;10452751;28;20367;-57
2024/03/01 18:43:45;;;;;;;9.43;2.65;;;;;;;17.19;52.87;99878.06;10451300;28;20353;-58
2024/03/01 18:48:45;;;;;;;10.77;2.20;;;;;;;17.20;52.83;99868.13;10435217;28;20033;-59
2024/03/01 18:53:46;;;;;;;5.93;1.48;;;;;;;17.20;52.96;99863.56;10452765;28;20279;-58
2024/03/01 18:58:46;;;;;;;8.65;1.67;;;;;;;17.19;53.84;99861.97;10452875;28;20372;-58
2024/03/01 19:03:46;;;;;;;7.30;1.73;;;;;;;17.20;53.06;99847.50;10452619;28;20306;-59
2024/03/01 19:08:47;;;;;;;9.20;1.63;;;;;;;17.18;53.89;99841.66;10451685;28;20285;-58
2024/03/01 19:13:49;;;;;;;5.70;1.50;;;;;;;17.23;52.52;99836.16;10451780;28;20326;-59
2024/03/01 19:18:49;;;;;;;8.35;1.80;;;;;;;17.24;53.31;99837.72;10451470;28;20279;-59
2024/03/01 19:23:49;;;;;;;4.50;1.20;;;;;;;17.20;53.08;99836.78;10449149;28;20025;-59
2024/03/01 19:28:51;;;;;;;5.37;2.00;;;;;;;17.27;52.72;99838.22;10445460;28;20287;-58
2024/03/01 19:33:51;;;;;;;3.08;1.05;;;;;;;17.30;53.09;99832.25;10452489;28;20833;-59
2024/03/01 19:38:52;;;;;;;4.37;1.10;;;;;;;17.31;52.88;99831.94;10453002;28;20028;-58
2024/03/01 19:43:52;;;;;;;6.35;1.10;;;;;;;17.33;52.08;99832.41;10451411;28;21100;-59
2024/03/01 19:48:53;;;;;;;4.63;1.20;;;;;;;17.37;52.76;99830.69;10452352;28;20021;-59
2024/03/01 19:53:53;;;;;;;6.70;1.60;;;;;;;17.38;52.26;99834.16;10452939;28;20272;-58
2024/03/01 19:58:53;;;;;;;6.53;1.25;;;;;;;17.34;53.26;99825.16;10452081;28;20279;-59
2024/03/01 20:03:54;;;;;;;3.10;1.10;;;;;;;17.31;52.34;99826.59;10441525;28;20021;-58
2024/03/01 20:08:54;;;;;;;9.80;1.48;;;;;;;17.34;52.86;99817.91;10451393;28;20930;-58
2024/03/01 20:13:54;;;;;;;5.53;1.65;;;;;;;17.32;52.71;99819.34;10450497;28;20094;-59
2024/03/01 20:18:55;;;;;;;3.17;1.17;;;;;;;17.32;51.88;99808.63;10451414;28;20021;-58
2024/03/01 20:23:55;;;;;;;4.77;1.07;;;;;;;17.34;52.23;99804.53;10450005;28;20283;-59
2024/03/01 20:28:57;;;;;;;3.72;1.05;;;;;;;17.34;52.36;99795.69;10448179;28;20279;-59
2024/03/01 20:33:57;;;;;;;3.50;1.25;;;;;;;17.31;52.58;99797.13;10451037;28;20028;-58
2024/03/01 20:38:58;;;;;;;1.67;0.70;;;;;;;17.34;53.40;99791.13;10448776;28;20052;-59
2024/03/01 20:43:58;;;;;;;2.43;1.00;;;;;;;17.30;52.80;99790.19;10450579;28;20052;-58
2024/03/01 20:48:58;;;;;;;2.17;1.10;;;;;;;17.36;52.92;99778.22;10450374;28;20286;-59
2024/03/01 20:53:59;;;;;;;4.05;0.80;;;;;;;17.33;51.73;99770.00;10450642;28;20028;-58
2024/03/01 20:58:59;;;;;;;1.75;0.93;;;;;;;17.30;51.48;99781.34;10449698;28;20029;-59
2024/03/01 21:03:59;;;;;;;3.28;1.15;;;;;;;17.30;52.17;99771.41;10450832;28;20158;-58
2024/03/01 21:09:00;;;;;;;4.00;0.70;;;;;;;17.31;53.32;99766.84;10446963;28;20036;-59
2024/03/01 21:14:00;;;;;;;2.90;0.60;;;;;;;17.35;52.23;99763.22;10449655;28;20292;-58
2024/03/01 21:19:00;;;;;;;3.13;0.80;;;;;;;17.36;52.26;99756.78;10449175;28;20280;-59
2024/03/01 21:24:01;;;;;;;1.65;0.63;;;;;;;17.33;52.11;99749.38;10449993;28;20025;-59
2024/03/01 21:29:02;;;;;;;1.65;0.70;;;;;;;17.33;51.78;99741.31;10449208;28;20033;-59
2024/03/01 21:34:03;;;;;;;2.00;1.00;;;;;;;17.32;51.54;99729.03;10440594;28;20028;-59
2024/03/01 21:39:03;;;;;;;4.38;1.23;;;;;;;17.35;51.85;99739.13;10439464;28;20029;-59
2024/03/01 21:44:03;;;;;;;1.80;0.60;;;;;;;17.34;52.43;99729.50;10446358;28;20461;-58
2024/03/01 21:49:04;;;;;;;2.30;1.17;;;;;;;17.34;52.84;99723.34;10449322;28;20271;-58
2024/03/01 21:54:04;;;;;;;1.33;0.67;;;;;;;17.35;51.09;99708.84;10449544;28;20525;-58
2024/03/01 21:59:05;;;;;;;1.80;0.70;;;;;;;17.35;52.13;99706.97;10448681;28;20322;-58
2024/03/01 22:04:06;;;;;;;3.45;0.82;;;;;;;17.34;51.77;99702.72;10440792;28;20083;-59
2024/03/01 22:09:06;;;;;;;1.42;0.63;;;;;;;17.37;51.56;99701.28;10449023;28;20025;-59
2024/03/01 22:14:07;;;;;;;4.13;1.77;;;;;;;17.36;51.68;99700.50;10454242;28;20037;-59
2024/03/01 22:19:07;;;;;;;1.57;0.60;;;;;;;17.34;52.01;99685.84;10456386;28;20360;-58
2024/03/01 22:24:07;;;;;;;2.80;0.83;;;;;;;17.37;51.81;99683.31;10456681;28;20299;-59
2024/03/01 22:29:10;;;;;;;1.93;0.60;;;;;;;17.34;52.47;99686.63;10456117;28;20275;-58
2024/03/01 22:34:11;;;;;;;1.38;0.73;;;;;;;17.35;51.78;99679.38;10456030;28;20274;-58
2024/03/01 22:39:12;;;;;;;2.67;0.95;;;;;;;17.37;50.56;99690.56;10455433;28;20025;-59
2024/03/01 22:44:12;;;;;;;1.70;0.57;;;;;;;17.33;51.31;99678.91;10454528;28;20025;-59
2024/03/01 22:49:13;;;;;;;1.33;0.43;;;;;;;17.33;50.84;99681.59;10454266;28;20704;-59
2024/03/01 22:54:22;;;;;;;1.33;0.68;;;;;;;17.36;50.99;99672.91;10455684;28;20029;-59
2024/03/01 22:59:59;;;;;;;1.33;0.50;;;;;;;17.33;51.80;99674.34;10453349;28;20032;-59
2024/03/01 23:05:00;;;;;;;0.95;0.40;;;;;;;17.34;50.89;99667.09;10444190;28;20044;-59
2024/03/01 23:10:04;;;;;;;1.30;0.73;;;;;;;17.34;51.45;99667.88;10454266;28;20041;-59
2024/03/01 23:15:04;;;;;;;0.75;0.60;;;;;;;17.34;50.53;99659.06;10454826;28;20075;-59
2024/03/01 23:20:09;;;;;;;0.98;0.50;;;;;;;17.36;50.92;99664.88;10452470;28;20140;-59
2024/03/01 23:25:10;;;;;;;1.40;0.60;;;;;;;17.37;50.84;99667.25;10453794;28;20087;-59